createdAt,value
2023-01-29T00:02:54.561Z,-0.30
2023-01-29T00:06:58.054Z,-0.20
2023-01-29T00:11:02.694Z,-0.30
2023-01-29T00:15:08.935Z,-0.50
2023-01-29T00:19:12.316Z,-0.50
2023-01-29T00:23:15.766Z,-0.50
2023-01-29T00:27:19.164Z,-0.50
2023-01-29T00:31:26.069Z,-0.50
2023-01-29T00:35:29.643Z,-0.40
2023-01-29T00:39:47.423Z,-0.40
2023-01-29T00:44:09.197Z,-0.50
2023-01-29T00:48:13.930Z,-0.60
2023-01-29T00:52:26.296Z,-0.30
2023-01-29T00:56:30.609Z,-0.30
2023-01-29T01:00:34.158Z,-0.40
2023-01-29T01:04:38.831Z,-0.40
2023-01-29T01:08:59.712Z,-0.50
2023-01-29T01:13:08.053Z,-0.60
2023-01-29T01:17:11.560Z,-0.60
2023-01-29T01:21:16.398Z,-0.60
2023-01-29T01:25:19.995Z,-0.60
2023-01-29T01:29:23.370Z,-0.60
2023-01-29T01:33:26.889Z,-0.60
2023-01-29T01:37:31.677Z,-0.60
2023-01-29T01:41:35.110Z,-0.60
2023-01-29T01:45:38.965Z,-0.60
2023-01-29T01:49:42.434Z,-0.50
2023-01-29T01:53:53.756Z,-0.60
2023-01-29T01:58:03.287Z,-0.60
2023-01-29T02:02:25.429Z,-0.50
2023-01-29T02:06:46.490Z,-0.60
2023-01-29T02:10:51.484Z,-0.70
2023-01-29T02:14:54.841Z,-0.70
2023-01-29T02:18:58.264Z,-0.70
2023-01-29T02:23:35.460Z,-0.70
2023-01-29T02:28:15.232Z,-0.60
2023-01-29T02:32:26.061Z,-0.60
2023-01-29T02:36:37.034Z,-0.70
2023-01-29T02:40:45.189Z,-0.70
2023-01-29T02:44:57.340Z,-0.70
2023-01-29T02:49:08.390Z,-0.60
2023-01-29T02:53:17.124Z,-0.50
2023-01-29T02:57:24.837Z,-0.50
2023-01-29T03:01:35.101Z,-0.50
2023-01-29T03:05:46.456Z,-0.70
2023-01-29T03:09:53.863Z,-0.70
2023-01-29T03:14:01.258Z,-0.60
2023-01-29T03:18:10.969Z,-0.80
2023-01-29T03:22:16.842Z,-0.70
2023-01-29T03:26:41.005Z,-0.80
2023-01-29T03:31:07.674Z,-0.70
2023-01-29T03:35:21.153Z,-0.90
2023-01-29T03:39:30.157Z,-1.00
2023-01-29T03:43:39.403Z,-0.80
2023-01-29T03:47:47.477Z,-0.60
2023-01-29T03:51:59.520Z,-0.80
2023-01-29T03:56:07.273Z,-0.80
2023-01-29T04:00:16.945Z,-0.90
2023-01-29T04:04:26.067Z,-1.10
2023-01-29T04:08:35.177Z,-1.00
2023-01-29T04:12:41.407Z,-1.10
2023-01-29T04:16:49.838Z,-1.00
2023-01-29T04:20:53.583Z,-1.10
2023-01-29T04:25:02.949Z,-1.10
2023-01-29T04:29:32.082Z,-1.30
2023-01-29T04:33:40.566Z,-1.20
2023-01-29T04:37:57.495Z,-1.40
2023-01-29T04:42:13.645Z,-1.40
2023-01-29T04:46:21.146Z,-1.40
2023-01-29T04:50:30.409Z,-1.40
2023-01-29T04:54:46.044Z,-1.40
2023-01-29T04:58:54.630Z,-1.40
2023-01-29T05:02:58.597Z,-1.50
2023-01-29T05:07:06.378Z,-1.50
2023-01-29T05:11:10.897Z,-1.70
2023-01-29T05:15:21.481Z,-1.70
2023-01-29T05:19:24.785Z,-1.80
2023-01-29T05:23:28.296Z,-1.70
2023-01-29T05:27:53.553Z,-1.90
2023-01-29T05:31:58.258Z,-2.00
2023-01-29T05:36:01.907Z,-2.00
2023-01-29T05:40:09.724Z,-2.00
2023-01-29T05:44:13.331Z,-2.00
2023-01-29T05:48:20.026Z,-2.00
2023-01-29T05:52:23.465Z,-2.10
2023-01-29T05:56:26.835Z,-2.30
2023-01-29T06:00:30.206Z,-2.30
2023-01-29T06:04:35.347Z,-2.30
2023-01-29T06:08:40.246Z,-2.20
2023-01-29T06:12:44.155Z,-2.30
2023-01-29T06:16:47.453Z,-2.30
2023-01-29T06:20:52.103Z,-2.30
2023-01-29T06:24:55.545Z,-2.20
2023-01-29T06:28:58.787Z,-2.30
2023-01-29T06:33:02.931Z,-2.20
2023-01-29T06:37:08.020Z,-2.20
2023-01-29T06:41:12.953Z,-2.00
2023-01-29T06:45:16.473Z,-2.00
2023-01-29T06:49:19.765Z,-2.00
2023-01-29T06:53:25.033Z,-1.80
2023-01-29T06:57:30.622Z,-1.80
2023-01-29T07:01:36.402Z,-1.80
2023-01-29T07:05:40.165Z,-1.60
2023-01-29T07:09:45.282Z,-1.50
2023-01-29T07:13:48.659Z,-1.40
2023-01-29T07:17:59.788Z,-1.20
2023-01-29T07:22:04.055Z,-0.60
2023-01-29T07:26:09.239Z,-0.50
2023-01-29T07:30:13.601Z,-0.40
2023-01-29T07:34:16.929Z,-0.30
2023-01-29T07:38:20.543Z,0.10
2023-01-29T07:42:29.447Z,0.10
2023-01-29T07:46:32.768Z,0.30
2023-01-29T07:50:37.291Z,0.40
2023-01-29T07:54:40.520Z,0.50
2023-01-29T07:58:45.190Z,0.40
2023-01-29T08:02:48.423Z,0.40
2023-01-29T08:06:51.791Z,0.50
2023-01-29T08:10:55.093Z,0.60
2023-01-29T08:15:00.130Z,0.40
2023-01-29T08:19:04.145Z,0.50
2023-01-29T08:23:09.481Z,0.50
2023-01-29T08:27:13.009Z,0.70
2023-01-29T08:31:20.708Z,0.80
2023-01-29T08:35:24.191Z,0.80
2023-01-29T08:39:27.489Z,1.00
2023-01-29T08:43:30.828Z,0.90
2023-01-29T08:47:36.321Z,1.00
2023-01-29T08:51:39.823Z,1.20
2023-01-29T08:55:43.276Z,1.20
2023-01-29T08:59:46.500Z,1.40
2023-01-29T09:03:52.506Z,1.50
2023-01-29T09:07:57.655Z,1.50
2023-01-29T09:12:00.879Z,1.40
2023-01-29T09:16:05.874Z,1.40
2023-01-29T09:20:12.393Z,1.40
2023-01-29T09:24:15.775Z,1.80
2023-01-29T09:28:19.068Z,2.00
2023-01-29T09:32:49.808Z,2.20
2023-01-29T09:36:46.883Z,1.90
2023-01-29T09:40:59.801Z,1.80
2023-01-29T09:45:07.974Z,2.00
2023-01-29T09:49:15.848Z,2.10
2023-01-29T09:53:25.606Z,2.20
2023-01-29T09:57:36.034Z,2.00
2023-01-29T10:01:49.330Z,1.90
2023-01-29T10:06:06.345Z,2.00
2023-01-29T10:10:25.749Z,2.40
2023-01-29T10:14:38.127Z,2.40
2023-01-29T10:19:08.491Z,3.20
2023-01-29T10:23:22.940Z,4.50
2023-01-29T10:27:33.756Z,4.20
2023-01-29T10:31:41.062Z,3.50
2023-01-29T10:35:50.330Z,3.30
2023-01-29T10:39:53.636Z,3.50
2023-01-29T10:44:08.225Z,3.30
2023-01-29T10:48:41.488Z,2.90
2023-01-29T10:53:09.932Z,2.80
2023-01-29T10:57:20.344Z,3.10
2023-01-29T11:01:26.984Z,4.00
2023-01-29T11:05:35.581Z,3.50
2023-01-29T11:09:44.197Z,3.40
2023-01-29T11:13:54.410Z,3.20
2023-01-29T11:18:11.700Z,2.90
2023-01-29T11:22:17.136Z,2.70
2023-01-29T11:26:24.093Z,2.50
2023-01-29T11:30:29.511Z,2.50
2023-01-29T11:34:35.695Z,2.60
2023-01-29T11:38:38.890Z,2.70
2023-01-29T11:42:42.549Z,2.60
2023-01-29T11:46:46.441Z,2.50
2023-01-29T11:50:56.769Z,2.60
2023-01-29T11:55:03.675Z,2.60
2023-01-29T11:59:08.444Z,2.50
2023-01-29T12:03:17.677Z,2.80
2023-01-29T12:07:22.910Z,2.90
2023-01-29T12:11:29.910Z,2.80
2023-01-29T12:15:33.609Z,2.90
2023-01-29T12:19:42.706Z,2.60
2023-01-29T12:23:53.668Z,2.30
2023-01-29T12:28:01.554Z,1.70
2023-01-29T12:32:14.506Z,2.00
2023-01-29T12:36:23.607Z,2.10
2023-01-29T12:40:32.840Z,2.00
2023-01-29T12:44:43.056Z,2.10
2023-01-29T12:48:47.590Z,2.30
2023-01-29T12:52:55.144Z,1.90
2023-01-29T12:57:03.991Z,1.90
2023-01-29T13:01:15.432Z,2.40
2023-01-29T13:05:25.067Z,4.20
2023-01-29T13:09:31.566Z,4.00
2023-01-29T13:13:43.226Z,3.20
2023-01-29T13:17:50.243Z,2.90
2023-01-29T13:21:55.211Z,2.80
2023-01-29T13:25:58.992Z,2.70
2023-01-29T13:30:05.511Z,2.70
2023-01-29T13:34:16.241Z,2.10
2023-01-29T13:38:27.003Z,1.80
2023-01-29T13:42:41.068Z,2.00
2023-01-29T13:46:51.747Z,1.70
2023-01-29T13:50:58.124Z,1.70
2023-01-29T13:55:04.171Z,1.60
2023-01-29T13:59:08.210Z,1.60
2023-01-29T14:04:03.847Z,1.50
2023-01-29T14:08:08.158Z,1.30
2023-01-29T14:12:34.526Z,1.30
2023-01-29T14:16:38.541Z,1.40
2023-01-29T14:21:02.863Z,1.40
2023-01-29T14:25:08.201Z,1.60
2023-01-29T14:29:32.549Z,1.70
2023-01-29T14:33:41.690Z,1.40
2023-01-29T14:37:51.446Z,1.30
2023-01-29T14:41:56.075Z,1.50
2023-01-29T14:46:45.475Z,1.50
2023-01-29T14:51:00.859Z,1.20
2023-01-29T14:55:11.361Z,1.30
2023-01-29T14:59:19.070Z,1.00
2023-01-29T15:03:31.566Z,1.10
2023-01-29T15:07:38.376Z,1.20
2023-01-29T15:11:54.153Z,0.90
2023-01-29T15:16:06.302Z,0.70
2023-01-29T15:20:29.294Z,1.00
2023-01-29T15:24:33.141Z,0.70
2023-01-29T15:28:39.147Z,0.90
2023-01-29T15:32:44.398Z,0.70
2023-01-29T15:36:49.715Z,0.70
2023-01-29T15:40:54.428Z,0.50
2023-01-29T15:45:00.432Z,0.40
2023-01-29T15:49:12.803Z,0.50
2023-01-29T15:53:21.792Z,0.40
2023-01-29T15:57:27.631Z,0.50
2023-01-29T16:01:33.385Z,0.20
2023-01-29T16:05:40.266Z,0.40
2023-01-29T16:09:45.129Z,0.40
2023-01-29T16:13:51.306Z,0.40
2023-01-29T16:17:57.517Z,0.10
2023-01-29T16:22:03.404Z,0.10
2023-01-29T16:26:09.034Z,0.30
2023-01-29T16:30:17.864Z,0.40
2023-01-29T16:34:29.016Z,0.20
2023-01-29T16:38:37.247Z,0.30
2023-01-29T16:42:42.753Z,0.10
2023-01-29T16:46:48.727Z,0.10
2023-01-29T16:51:06.428Z,0.20
2023-01-29T16:55:23.775Z,0.10
2023-01-29T16:59:34.028Z,0.20
2023-01-29T17:03:39.647Z,0.00
2023-01-29T17:07:48.041Z,0.20
2023-01-29T17:12:00.796Z,0.00
2023-01-29T17:16:16.890Z,0.20
2023-01-29T17:20:21.661Z,0.10
2023-01-29T17:24:32.127Z,0.20
2023-01-29T17:28:37.092Z,0.20
2023-01-29T17:32:44.155Z,0.30
2023-01-29T17:36:50.204Z,0.20
2023-01-29T17:41:00.165Z,0.10
2023-01-29T17:45:08.313Z,0.20
2023-01-29T17:49:25.201Z,0.20
2023-01-29T17:53:44.125Z,0.10
2023-01-29T17:57:51.696Z,0.30
2023-01-29T18:01:56.785Z,0.20
2023-01-29T18:06:01.975Z,0.00
2023-01-29T18:10:07.488Z,0.30
2023-01-29T18:14:16.163Z,0.20
2023-01-29T18:18:24.765Z,0.20
2023-01-29T18:22:30.420Z,0.10
2023-01-29T18:26:36.443Z,0.10
2023-01-29T18:30:44.926Z,-0.20
2023-01-29T18:34:50.041Z,0.00
2023-01-29T18:38:56.964Z,0.20
2023-01-29T18:43:01.444Z,0.10
2023-01-29T18:47:07.897Z,0.20
2023-01-29T18:51:14.383Z,0.00
2023-01-29T18:55:19.414Z,0.00
2023-01-29T18:59:24.225Z,0.00
2023-01-29T19:03:30.466Z,0.10
2023-01-29T19:07:35.949Z,-0.30
2023-01-29T19:11:42.108Z,0.00
2023-01-29T19:15:48.722Z,0.30
2023-01-29T19:20:02.509Z,0.20
2023-01-29T19:24:10.642Z,0.00
2023-01-29T19:28:15.802Z,0.10
2023-01-29T19:32:25.013Z,0.10
2023-01-29T19:36:33.196Z,0.20
2023-01-29T19:40:39.976Z,-0.10
2023-01-29T19:44:45.975Z,0.10
2023-01-29T19:48:51.538Z,0.10
2023-01-29T19:52:59.094Z,-0.20
2023-01-29T19:57:05.185Z,0.10
2023-01-29T20:01:15.987Z,0.10
2023-01-29T20:05:22.215Z,0.10
2023-01-29T20:09:30.978Z,0.00
2023-01-29T20:13:36.703Z,-0.20
2023-01-29T20:17:42.277Z,-0.10
2023-01-29T20:21:50.478Z,-0.30
2023-01-29T20:26:02.564Z,-0.40
2023-01-29T20:30:09.900Z,-0.30
2023-01-29T20:34:15.089Z,-0.40
2023-01-29T20:38:20.090Z,-0.40
2023-01-29T20:42:26.751Z,-0.50
2023-01-29T20:46:32.160Z,-0.40
2023-01-29T20:50:39.733Z,-0.60
2023-01-29T20:54:44.065Z,-0.60
2023-01-29T20:58:50.377Z,-0.50
2023-01-29T21:02:54.980Z,-0.70
2023-01-29T21:07:00.119Z,-0.70
2023-01-29T21:11:05.013Z,-0.80
2023-01-29T21:15:13.795Z,-0.70
2023-01-29T21:19:18.833Z,-0.80
2023-01-29T21:23:23.654Z,-0.70
2023-01-29T21:27:28.235Z,-0.70
2023-01-29T21:31:35.567Z,-0.90
2023-01-29T21:35:42.193Z,-0.90
2023-01-29T21:39:46.136Z,-1.20
2023-01-29T21:43:50.406Z,-1.30
2023-01-29T21:47:55.585Z,-1.40
2023-01-29T21:52:00.681Z,-1.50
2023-01-29T21:56:05.877Z,-1.50
2023-01-29T22:00:11.290Z,-1.80
2023-01-29T22:04:16.588Z,-1.80
2023-01-29T22:08:20.638Z,-1.90
2023-01-29T22:12:24.556Z,-2.00
2023-01-29T22:16:29.989Z,-1.90
2023-01-29T22:20:36.812Z,-2.00
2023-01-29T22:24:40.190Z,-2.20
2023-01-29T22:28:43.686Z,-2.10
2023-01-29T22:32:46.970Z,-2.30
2023-01-29T22:36:51.742Z,-2.40
2023-01-29T22:40:56.790Z,-2.50
2023-01-29T22:45:00.103Z,-2.50
2023-01-29T22:49:03.571Z,-2.60
2023-01-29T22:53:08.749Z,-2.50
2023-01-29T22:57:13.571Z,-2.60
2023-01-29T23:01:19.940Z,-2.60
2023-01-29T23:05:23.210Z,-2.50
2023-01-29T23:09:27.849Z,-2.40
2023-01-29T23:13:31.255Z,-2.50
2023-01-29T23:17:34.459Z,-2.50
2023-01-29T23:21:37.969Z,-2.70
2023-01-29T23:25:59.995Z,-2.80
2023-01-29T23:30:03.279Z,-2.90
2023-01-29T23:34:06.770Z,-2.80
2023-01-29T23:38:09.976Z,-2.90
2023-01-29T23:42:14.671Z,-3.20
2023-01-29T23:46:17.867Z,-3.00
2023-01-29T23:50:21.234Z,-3.40
2023-01-29T23:54:24.478Z,-3.30
2023-01-29T23:58:30.307Z,-3.30
